createdAt,value
2019-01-03T00:00:16.816Z,1031.14
2019-01-03T00:01:16.471Z,1031.18
2019-01-03T00:02:16.715Z,1031.14
2019-01-03T00:03:16.458Z,1031.19
2019-01-03T00:04:16.453Z,1031.18
2019-01-03T00:05:16.426Z,1031.16
2019-01-03T00:06:16.424Z,1031.14
2019-01-03T00:07:16.465Z,1031.18
2019-01-03T00:08:16.656Z,1031.17
2019-01-03T00:09:16.388Z,1031.22
2019-01-03T00:10:16.415Z,1031.16
2019-01-03T00:11:16.358Z,1031.19
2019-01-03T00:12:16.901Z,1031.20
2019-01-03T00:13:16.354Z,1031.18
2019-01-03T00:14:16.919Z,1031.14
2019-01-03T00:15:16.367Z,1031.13
2019-01-03T00:16:16.306Z,1031.15
2019-01-03T00:17:16.297Z,1031.14
2019-01-03T00:18:16.300Z,1031.14
2019-01-03T00:19:16.571Z,1031.15
2019-01-03T00:20:16.276Z,1031.14
2019-01-03T00:21:16.246Z,1031.14
2019-01-03T00:22:16.235Z,1031.20
2019-01-03T00:23:16.735Z,1031.13
2019-01-03T00:24:16.237Z,1031.12
2019-01-03T00:25:16.217Z,1031.16
2019-01-03T00:26:16.452Z,1031.18
2019-01-03T00:27:16.198Z,1031.17
2019-01-03T00:28:16.216Z,1031.13
2019-01-03T00:29:16.188Z,1031.15
2019-01-03T00:30:16.149Z,1031.17
2019-01-03T00:31:16.162Z,1031.15
2019-01-03T00:32:16.390Z,1031.16
2019-01-03T00:33:16.132Z,1031.17
2019-01-03T00:34:16.110Z,1031.20
2019-01-03T00:35:16.118Z,1031.16
2019-01-03T00:36:16.082Z,1031.19
2019-01-03T00:37:16.320Z,1031.20
2019-01-03T00:38:16.120Z,1031.21
2019-01-03T00:39:16.301Z,1031.21
2019-01-03T00:40:16.038Z,1031.23
2019-01-03T00:41:16.029Z,1031.28
2019-01-03T00:42:16.021Z,1031.25
2019-01-03T00:43:16.028Z,1031.23
2019-01-03T00:44:15.996Z,1031.26
2019-01-03T00:45:16.144Z,1031.23
2019-01-03T00:46:15.976Z,1031.26
2019-01-03T00:47:15.966Z,1031.26
2019-01-03T00:48:16.251Z,1031.25
2019-01-03T00:49:15.942Z,1031.29
2019-01-03T00:50:15.978Z,1031.29
2019-01-03T00:51:15.942Z,1031.27
2019-01-03T00:52:15.911Z,1031.26
2019-01-03T00:53:15.909Z,1031.24
2019-01-03T00:54:15.900Z,1031.28
2019-01-03T00:55:15.904Z,1031.28
2019-01-03T00:56:15.860Z,1031.25
2019-01-03T00:57:16.353Z,1031.24
2019-01-03T00:58:15.852Z,1031.25
2019-01-03T00:59:15.840Z,1031.23
2019-01-03T01:00:15.818Z,1031.20
2019-01-03T01:01:15.808Z,1031.16
2019-01-03T01:02:15.832Z,1031.15
2019-01-03T01:03:15.785Z,1031.14
2019-01-03T01:04:15.777Z,1031.17
2019-01-03T01:05:15.858Z,1031.19
2019-01-03T01:06:15.806Z,1031.21
2019-01-03T01:07:15.738Z,1031.21
2019-01-03T01:08:15.727Z,1031.22
2019-01-03T01:09:15.723Z,1031.25
2019-01-03T01:10:15.776Z,1031.28
2019-01-03T01:11:15.698Z,1031.27
2019-01-03T01:12:15.686Z,1031.20
2019-01-03T01:13:15.676Z,1031.21
2019-01-03T01:14:15.730Z,1031.20
2019-01-03T01:15:15.657Z,1031.24
2019-01-03T01:16:15.648Z,1031.23
2019-01-03T01:17:15.680Z,1031.29
2019-01-03T01:18:15.631Z,1031.27
2019-01-03T01:19:15.675Z,1031.27
2019-01-03T01:20:15.612Z,1031.30
2019-01-03T01:21:15.593Z,1031.29
2019-01-03T01:22:15.577Z,1031.31
2019-01-03T01:23:15.591Z,1031.38
2019-01-03T01:24:15.590Z,1031.38
2019-01-03T01:25:15.542Z,1031.42
2019-01-03T01:26:15.719Z,1031.43
2019-01-03T01:27:15.519Z,1031.38
2019-01-03T01:28:15.516Z,1031.41
2019-01-03T01:29:15.538Z,1031.44
2019-01-03T01:30:15.739Z,1031.41
2019-01-03T01:31:15.500Z,1031.45
2019-01-03T01:32:15.468Z,1031.45
2019-01-03T01:33:15.457Z,1031.46
2019-01-03T01:34:15.460Z,1031.50
2019-01-03T01:35:15.467Z,1031.51
2019-01-03T01:36:15.441Z,1031.52
2019-01-03T01:37:15.416Z,1031.53
2019-01-03T01:38:15.402Z,1031.51
2019-01-03T01:39:15.407Z,1031.50
2019-01-03T01:40:15.381Z,1031.58
2019-01-03T01:41:15.411Z,1031.62
2019-01-03T01:42:15.358Z,1031.66
2019-01-03T01:43:15.363Z,1031.60
2019-01-03T01:44:15.354Z,1031.61
2019-01-03T01:45:15.357Z,1031.62
2019-01-03T01:46:15.326Z,1031.63
2019-01-03T01:47:15.338Z,1031.61
2019-01-03T01:48:15.294Z,1031.56
2019-01-03T01:49:15.315Z,1031.55
2019-01-03T01:50:15.282Z,1031.58
2019-01-03T01:51:15.337Z,1031.56
2019-01-03T01:52:15.254Z,1031.61
2019-01-03T01:53:15.243Z,1031.60
2019-01-03T01:54:15.450Z,1031.62
2019-01-03T01:55:15.217Z,1031.57
2019-01-03T01:56:15.263Z,1031.59
2019-01-03T01:57:15.218Z,1031.65
2019-01-03T01:58:15.186Z,1031.64
2019-01-03T01:59:15.187Z,1031.60
2019-01-03T02:00:15.159Z,1031.57
2019-01-03T02:01:15.152Z,1031.55
2019-01-03T02:02:15.148Z,1031.61
2019-01-03T02:03:15.130Z,1031.68
2019-01-03T02:04:15.131Z,1031.70
2019-01-03T02:05:15.114Z,1031.76
2019-01-03T02:06:15.091Z,1031.70
2019-01-03T02:07:15.085Z,1031.68
2019-01-03T02:08:15.092Z,1031.72
2019-01-03T02:09:15.466Z,1031.71
2019-01-03T02:10:15.055Z,1031.67
2019-01-03T02:11:15.206Z,1031.77
2019-01-03T02:12:15.056Z,1031.87
2019-01-03T02:13:15.033Z,1031.91
2019-01-03T02:14:15.020Z,1031.94
2019-01-03T02:15:15.235Z,1031.87
2019-01-03T02:16:15.008Z,1031.87
2019-01-03T02:17:14.971Z,1031.92
2019-01-03T02:18:14.962Z,1031.92
2019-01-03T02:19:14.989Z,1031.93
2019-01-03T02:20:14.939Z,1031.89
2019-01-03T02:21:15.178Z,1031.84
2019-01-03T02:22:14.916Z,1031.82
2019-01-03T02:23:15.155Z,1031.80
2019-01-03T02:24:14.910Z,1031.73
2019-01-03T02:25:14.887Z,1031.73
2019-01-03T02:26:15.155Z,1031.71
2019-01-03T02:27:14.862Z,1031.75
2019-01-03T02:28:14.860Z,1031.71
2019-01-03T02:29:14.861Z,1031.70
2019-01-03T02:30:14.860Z,1031.72
2019-01-03T02:31:15.061Z,1031.72
2019-01-03T02:32:15.060Z,1031.69
2019-01-03T02:33:15.052Z,1031.62
2019-01-03T02:34:14.803Z,1031.66
2019-01-03T02:35:14.775Z,1031.58
2019-01-03T02:36:14.767Z,1031.62
2019-01-03T02:37:14.778Z,1031.70
2019-01-03T02:38:14.741Z,1031.68
2019-01-03T02:39:14.740Z,1031.57
2019-01-03T02:40:14.746Z,1031.52
2019-01-03T02:41:14.714Z,1031.48
2019-01-03T02:42:14.704Z,1031.42
2019-01-03T02:43:14.700Z,1031.41
2019-01-03T02:44:14.717Z,1031.41
2019-01-03T02:45:14.683Z,1031.43
2019-01-03T02:46:14.680Z,1031.42
2019-01-03T02:47:14.645Z,1031.43
2019-01-03T02:48:14.646Z,1031.49
2019-01-03T02:49:14.871Z,1031.50
2019-01-03T02:50:14.903Z,1031.46
2019-01-03T02:51:14.853Z,1031.46
2019-01-03T02:52:14.620Z,1031.50
2019-01-03T02:53:14.589Z,1031.51
2019-01-03T02:54:14.575Z,1031.54
2019-01-03T02:55:14.575Z,1031.56
2019-01-03T02:56:14.546Z,1031.59
2019-01-03T02:57:14.558Z,1031.56
2019-01-03T02:58:14.523Z,1031.54
2019-01-03T02:59:14.532Z,1031.50
2019-01-03T03:00:14.547Z,1031.48
2019-01-03T03:01:14.537Z,1031.40
2019-01-03T03:02:14.485Z,1031.38
2019-01-03T03:03:15.228Z,1031.34
2019-01-03T03:04:14.471Z,1031.38
2019-01-03T03:05:14.464Z,1031.44
2019-01-03T03:06:15.262Z,1031.46
2019-01-03T03:07:15.621Z,1031.44
2019-01-03T03:08:14.766Z,1031.37
2019-01-03T03:09:14.411Z,1031.34
2019-01-03T03:10:14.448Z,1031.36
2019-01-03T03:11:14.391Z,1031.35
2019-01-03T03:12:14.377Z,1031.29
2019-01-03T03:13:14.365Z,1031.23
2019-01-03T03:14:14.386Z,1031.22
2019-01-03T03:15:14.362Z,1031.20
2019-01-03T03:16:14.675Z,1031.16
2019-01-03T03:17:14.323Z,1031.08
2019-01-03T03:18:14.359Z,1031.04
2019-01-03T03:19:14.306Z,1031.07
2019-01-03T03:20:14.322Z,1031.07
2019-01-03T03:21:14.282Z,1031.08
2019-01-03T03:22:14.268Z,1031.10
2019-01-03T03:23:14.256Z,1031.03
2019-01-03T03:24:14.487Z,1031.05
2019-01-03T03:25:14.246Z,1031.04
2019-01-03T03:26:14.229Z,1031.00
2019-01-03T03:27:14.207Z,1030.96
2019-01-03T03:28:14.200Z,1030.98
2019-01-03T03:29:14.191Z,1030.95
2019-01-03T03:30:14.194Z,1030.94
2019-01-03T03:31:14.169Z,1030.94
2019-01-03T03:32:14.402Z,1030.94
2019-01-03T03:33:14.149Z,1030.90
2019-01-03T03:34:14.146Z,1030.90
2019-01-03T03:35:14.143Z,1030.86
2019-01-03T03:36:14.146Z,1030.86
2019-01-03T03:37:14.097Z,1030.83
2019-01-03T03:38:14.105Z,1030.86
2019-01-03T03:39:14.077Z,1030.81
2019-01-03T03:40:14.087Z,1030.83
2019-01-03T03:41:14.066Z,1030.77
2019-01-03T03:42:14.077Z,1030.84
2019-01-03T03:43:14.034Z,1030.80
2019-01-03T03:44:14.038Z,1030.82
2019-01-03T03:45:14.045Z,1030.81
2019-01-03T03:46:14.014Z,1030.82
2019-01-03T03:47:14.046Z,1030.89
2019-01-03T03:48:14.230Z,1030.80
2019-01-03T03:49:13.980Z,1030.76
2019-01-03T03:50:13.986Z,1030.71
2019-01-03T03:51:13.966Z,1030.74
2019-01-03T03:52:14.189Z,1030.73
2019-01-03T03:53:13.933Z,1030.74
2019-01-03T03:54:13.917Z,1030.71
2019-01-03T03:55:14.393Z,1030.74
2019-01-03T03:56:13.928Z,1030.79
2019-01-03T03:57:13.888Z,1030.79
2019-01-03T03:58:13.874Z,1030.80
2019-01-03T03:59:14.161Z,1030.80
2019-01-03T04:00:13.964Z,1030.83
2019-01-03T04:01:13.851Z,1030.90
2019-01-03T04:02:13.862Z,1030.95
2019-01-03T04:03:13.885Z,1030.95
2019-01-03T04:04:14.122Z,1030.96
2019-01-03T04:05:13.806Z,1030.84
2019-01-03T04:06:13.800Z,1030.81
2019-01-03T04:07:13.780Z,1030.86
2019-01-03T04:08:13.761Z,1030.98
2019-01-03T04:09:13.791Z,1031.03
2019-01-03T04:10:13.781Z,1031.01
2019-01-03T04:11:13.755Z,1031.02
2019-01-03T04:12:13.733Z,1030.94
2019-01-03T04:13:13.717Z,1030.91
2019-01-03T04:14:14.859Z,1030.89
2019-01-03T04:15:13.688Z,1030.81
2019-01-03T04:16:13.688Z,1030.84
2019-01-03T04:17:13.687Z,1030.84
2019-01-03T04:18:13.662Z,1030.89
2019-01-03T04:19:13.660Z,1030.89
2019-01-03T04:20:13.662Z,1030.82
2019-01-03T04:21:13.646Z,1030.80
2019-01-03T04:22:13.614Z,1030.80
2019-01-03T04:23:13.609Z,1030.80
2019-01-03T04:24:13.600Z,1030.81
2019-01-03T04:25:13.584Z,1030.81
2019-01-03T04:26:13.588Z,1030.79
2019-01-03T04:27:13.557Z,1030.83
2019-01-03T04:28:13.809Z,1030.87
2019-01-03T04:29:13.541Z,1030.85
2019-01-03T04:30:13.534Z,1030.86
2019-01-03T04:31:13.539Z,1030.82
2019-01-03T04:32:13.511Z,1030.84
2019-01-03T04:33:13.495Z,1030.89
2019-01-03T04:34:13.732Z,1030.89
2019-01-03T04:35:13.807Z,1030.98
2019-01-03T04:36:13.472Z,1030.91
2019-01-03T04:37:13.708Z,1031.00
2019-01-03T04:38:13.440Z,1030.99
2019-01-03T04:39:13.425Z,1030.97
2019-01-03T04:40:13.409Z,1030.94
2019-01-03T04:41:13.434Z,1030.94
2019-01-03T04:42:13.899Z,1030.86
2019-01-03T04:43:13.400Z,1030.77
2019-01-03T04:44:13.367Z,1030.80
2019-01-03T04:45:13.358Z,1030.79
2019-01-03T04:46:13.367Z,1030.80
2019-01-03T04:47:13.590Z,1030.85
2019-01-03T04:48:13.333Z,1030.83
2019-01-03T04:49:13.328Z,1030.87
2019-01-03T04:50:13.465Z,1030.84
2019-01-03T04:51:13.314Z,1030.81
2019-01-03T04:52:13.284Z,1030.76
2019-01-03T04:53:13.293Z,1030.77
2019-01-03T04:54:13.258Z,1030.76
2019-01-03T04:55:13.247Z,1030.75
2019-01-03T04:56:13.254Z,1030.74
2019-01-03T04:57:13.223Z,1030.70
2019-01-03T04:58:13.216Z,1030.69
2019-01-03T04:59:13.457Z,1030.66
2019-01-03T05:00:13.507Z,1030.71
2019-01-03T05:01:13.204Z,1030.70
2019-01-03T05:02:13.168Z,1030.66
2019-01-03T05:03:13.155Z,1030.67
2019-01-03T05:04:13.174Z,1030.70
2019-01-03T05:05:13.135Z,1030.72
2019-01-03T05:06:13.162Z,1030.78
2019-01-03T05:07:13.110Z,1030.74
2019-01-03T05:08:13.119Z,1030.74
2019-01-03T05:09:13.096Z,1030.80
2019-01-03T05:10:13.103Z,1030.76
2019-01-03T05:11:13.130Z,1030.77
2019-01-03T05:12:13.072Z,1030.76
2019-01-03T05:13:13.079Z,1030.79
2019-01-03T05:14:13.037Z,1030.76
2019-01-03T05:15:13.019Z,1030.78
2019-01-03T05:16:13.033Z,1030.76
2019-01-03T05:17:13.005Z,1030.73
2019-01-03T05:18:13.004Z,1030.77
2019-01-03T05:19:12.981Z,1030.78
2019-01-03T05:20:12.971Z,1030.75
2019-01-03T05:21:12.971Z,1030.77
2019-01-03T05:22:12.946Z,1030.74
2019-01-03T05:23:13.183Z,1030.80
2019-01-03T05:24:12.928Z,1030.75
2019-01-03T05:25:12.915Z,1030.77
2019-01-03T05:26:12.910Z,1030.75
2019-01-03T05:27:12.950Z,1030.76
2019-01-03T05:28:12.959Z,1030.75
2019-01-03T05:29:13.123Z,1030.83
2019-01-03T05:30:18.244Z,1030.81
2019-01-03T05:31:12.837Z,1030.82
2019-01-03T05:32:12.838Z,1030.78
2019-01-03T05:33:12.861Z,1030.78
2019-01-03T05:34:12.819Z,1030.83
2019-01-03T05:35:12.795Z,1030.83
2019-01-03T05:36:12.783Z,1030.76
2019-01-03T05:37:13.069Z,1030.71
2019-01-03T05:38:12.765Z,1030.77
2019-01-03T05:39:12.777Z,1030.79
2019-01-03T05:40:13.026Z,1030.75
2019-01-03T05:41:12.987Z,1030.74
2019-01-03T05:42:12.733Z,1030.75
2019-01-03T05:43:12.719Z,1030.69
2019-01-03T05:44:12.695Z,1030.72
2019-01-03T05:45:12.943Z,1030.73
2019-01-03T05:46:12.939Z,1030.70
2019-01-03T05:47:12.777Z,1030.72
2019-01-03T05:48:12.659Z,1030.71
2019-01-03T05:49:12.918Z,1030.72
2019-01-03T05:50:12.630Z,1030.70
2019-01-03T05:51:12.880Z,1030.69
2019-01-03T05:52:12.628Z,1030.71
2019-01-03T05:53:12.604Z,1030.69
2019-01-03T05:54:12.814Z,1030.72
2019-01-03T05:55:12.575Z,1030.70
2019-01-03T05:56:12.580Z,1030.68
2019-01-03T05:57:12.568Z,1030.67
2019-01-03T05:58:12.568Z,1030.66
2019-01-03T05:59:12.549Z,1030.69
2019-01-03T06:00:13.361Z,1030.68
2019-01-03T06:01:12.513Z,1030.68
2019-01-03T06:02:12.517Z,1030.67
2019-01-03T06:03:12.496Z,1030.69
2019-01-03T06:04:12.486Z,1030.70
2019-01-03T06:05:12.468Z,1030.73
2019-01-03T06:06:12.466Z,1030.75
2019-01-03T06:07:12.464Z,1030.77
2019-01-03T06:08:12.681Z,1030.81
2019-01-03T06:09:12.437Z,1030.79
2019-01-03T06:10:12.412Z,1030.83
2019-01-03T06:11:12.401Z,1030.78
2019-01-03T06:12:12.419Z,1030.78
2019-01-03T06:13:12.398Z,1030.84
2019-01-03T06:14:12.378Z,1030.80
2019-01-03T06:15:12.944Z,1030.80
2019-01-03T06:16:12.359Z,1030.80
2019-01-03T06:17:12.364Z,1030.82
2019-01-03T06:18:12.329Z,1030.82
2019-01-03T06:19:12.313Z,1030.83
2019-01-03T06:20:12.303Z,1030.86
2019-01-03T06:21:12.539Z,1030.84
2019-01-03T06:22:12.296Z,1030.81
2019-01-03T06:23:12.271Z,1030.80
2019-01-03T06:24:12.254Z,1030.78
2019-01-03T06:25:12.249Z,1030.77
2019-01-03T06:26:12.230Z,1030.80
2019-01-03T06:27:12.479Z,1030.76
2019-01-03T06:28:12.245Z,1030.80
2019-01-03T06:29:12.209Z,1030.83
2019-01-03T06:30:12.187Z,1030.84
2019-01-03T06:31:12.178Z,1030.84
2019-01-03T06:32:12.182Z,1030.78
2019-01-03T06:33:12.176Z,1030.83
2019-01-03T06:34:12.141Z,1030.87
2019-01-03T06:35:12.161Z,1030.86
2019-01-03T06:36:12.121Z,1030.91
2019-01-03T06:37:12.141Z,1030.95
2019-01-03T06:38:12.115Z,1030.98
2019-01-03T06:39:12.371Z,1030.98
2019-01-03T06:40:12.080Z,1030.98
2019-01-03T06:41:12.070Z,1030.95
2019-01-03T06:42:12.073Z,1030.94
2019-01-03T06:43:12.052Z,1030.94
2019-01-03T06:44:12.052Z,1030.99
2019-01-03T06:45:12.026Z,1030.94
2019-01-03T06:46:12.011Z,1030.98
2019-01-03T06:47:12.016Z,1030.97
2019-01-03T06:48:11.996Z,1031.00
2019-01-03T06:49:12.032Z,1030.96
2019-01-03T06:50:11.968Z,1030.94
2019-01-03T06:51:11.976Z,1030.98
2019-01-03T06:52:11.962Z,1030.96
2019-01-03T06:53:11.945Z,1030.99
2019-01-03T06:54:11.921Z,1030.93
2019-01-03T06:55:11.930Z,1030.99
2019-01-03T06:56:12.154Z,1030.96
2019-01-03T06:57:11.916Z,1031.03
2019-01-03T06:58:11.906Z,1031.02
2019-01-03T06:59:11.873Z,1031.05
2019-01-03T07:00:11.857Z,1030.99
2019-01-03T07:01:11.852Z,1030.99
2019-01-03T07:02:11.902Z,1031.01
2019-01-03T07:03:11.845Z,1030.98
2019-01-03T07:04:11.825Z,1030.96
2019-01-03T07:05:12.087Z,1031.02
2019-01-03T07:06:11.793Z,1031.04
2019-01-03T07:07:11.781Z,1031.08
2019-01-03T07:08:11.770Z,1031.10
2019-01-03T07:09:12.097Z,1031.04
2019-01-03T07:10:11.762Z,1031.04
2019-01-03T07:11:11.738Z,1031.04
2019-01-03T07:12:11.723Z,1031.06
2019-01-03T07:13:12.869Z,1031.03
2019-01-03T07:14:11.849Z,1031.05
2019-01-03T07:15:12.195Z,1031.09
2019-01-03T07:16:11.680Z,1031.16
2019-01-03T07:17:11.938Z,1031.16
2019-01-03T07:18:11.681Z,1031.15
2019-01-03T07:19:11.654Z,1031.18
2019-01-03T07:20:11.650Z,1031.15
2019-01-03T07:21:11.916Z,1031.12
2019-01-03T07:22:11.619Z,1031.11
2019-01-03T07:23:11.775Z,1031.06
2019-01-03T07:24:11.623Z,1031.04
2019-01-03T07:25:11.588Z,1031.04
2019-01-03T07:26:11.595Z,1031.04
2019-01-03T07:27:11.849Z,1031.05
2019-01-03T07:28:11.838Z,1031.02
2019-01-03T07:29:11.541Z,1030.99
2019-01-03T07:30:14.526Z,1030.99
2019-01-03T07:31:12.878Z,1030.99
2019-01-03T07:32:12.427Z,1030.98
2019-01-03T07:33:11.509Z,1031.02
2019-01-03T07:34:11.785Z,1031.01
2019-01-03T07:35:11.476Z,1031.02
2019-01-03T07:36:11.827Z,1031.05
2019-01-03T07:37:11.722Z,1031.09
2019-01-03T07:38:11.448Z,1031.08
2019-01-03T07:39:13.104Z,1031.11
2019-01-03T07:40:11.605Z,1031.13
2019-01-03T07:41:11.436Z,1031.12
2019-01-03T07:42:11.444Z,1031.11
2019-01-03T07:43:11.483Z,1031.11
2019-01-03T07:44:11.378Z,1031.08
2019-01-03T07:45:11.386Z,1031.11
2019-01-03T07:46:11.741Z,1031.11
2019-01-03T07:47:11.356Z,1031.08
2019-01-03T07:48:11.341Z,1031.11
2019-01-03T07:49:11.315Z,1031.17
2019-01-03T07:50:11.303Z,1031.20
2019-01-03T07:51:11.580Z,1031.19
2019-01-03T07:52:11.343Z,1031.22
2019-01-03T07:53:11.324Z,1031.24
2019-01-03T07:54:11.381Z,1031.22
2019-01-03T07:55:11.255Z,1031.19
2019-01-03T07:56:11.236Z,1031.23
2019-01-03T07:57:11.511Z,1031.18
2019-01-03T07:58:11.272Z,1031.19
2019-01-03T07:59:11.242Z,1031.17
2019-01-03T08:00:11.478Z,1031.18
2019-01-03T08:01:11.221Z,1031.22
2019-01-03T08:02:11.178Z,1031.24
2019-01-03T08:03:11.216Z,1031.19
2019-01-03T08:04:11.179Z,1031.24
2019-01-03T08:05:11.146Z,1031.22
2019-01-03T08:06:11.165Z,1031.22
2019-01-03T08:07:11.173Z,1031.22
2019-01-03T08:08:11.130Z,1031.25
2019-01-03T08:09:11.091Z,1031.22
2019-01-03T08:10:11.794Z,1031.21
2019-01-03T08:11:11.066Z,1031.17
2019-01-03T08:12:11.057Z,1031.23
2019-01-03T08:13:11.071Z,1031.26
2019-01-03T08:14:11.480Z,1031.31
2019-01-03T08:15:11.036Z,1031.32
2019-01-03T08:16:11.082Z,1031.33
2019-01-03T08:17:11.108Z,1031.28
2019-01-03T08:18:11.010Z,1031.31
2019-01-03T08:19:10.981Z,1031.29
2019-01-03T08:20:10.993Z,1031.26
2019-01-03T08:21:10.987Z,1031.32
2019-01-03T08:22:10.964Z,1031.31
2019-01-03T08:23:11.208Z,1031.27
2019-01-03T08:24:10.935Z,1031.26
2019-01-03T08:25:11.167Z,1031.27
2019-01-03T08:26:10.953Z,1031.26
2019-01-03T08:27:10.895Z,1031.24
2019-01-03T08:28:10.905Z,1031.25
2019-01-03T08:29:10.876Z,1031.28
2019-01-03T08:30:11.122Z,1031.29
2019-01-03T08:31:10.864Z,1031.36
2019-01-03T08:32:10.837Z,1031.38
2019-01-03T08:33:10.829Z,1031.36
2019-01-03T08:34:10.815Z,1031.37
2019-01-03T08:35:10.811Z,1031.40
2019-01-03T08:36:10.810Z,1031.36
2019-01-03T08:37:10.787Z,1031.35
2019-01-03T08:38:10.776Z,1031.35
2019-01-03T08:39:10.773Z,1031.33
2019-01-03T08:40:10.751Z,1031.35
2019-01-03T08:41:10.792Z,1031.36
2019-01-03T08:42:10.725Z,1031.34
2019-01-03T08:43:10.728Z,1031.31
2019-01-03T08:44:10.717Z,1031.34
2019-01-03T08:45:10.694Z,1031.32
2019-01-03T08:46:10.687Z,1031.36
2019-01-03T08:47:10.670Z,1031.35
2019-01-03T08:48:10.670Z,1031.31
2019-01-03T08:49:10.919Z,1031.30
2019-01-03T08:50:10.638Z,1031.35
2019-01-03T08:51:10.682Z,1031.32
2019-01-03T08:52:10.672Z,1031.40
2019-01-03T08:53:10.618Z,1031.33
2019-01-03T08:54:10.611Z,1031.38
2019-01-03T08:55:10.594Z,1031.38
2019-01-03T08:56:10.578Z,1031.37
2019-01-03T08:57:10.671Z,1031.39
2019-01-03T08:58:10.848Z,1031.38
2019-01-03T08:59:10.865Z,1031.40
2019-01-03T09:00:10.542Z,1031.45
2019-01-03T09:01:10.575Z,1031.46
2019-01-03T09:02:10.504Z,1031.45
2019-01-03T09:03:10.967Z,1031.49
2019-01-03T09:04:10.495Z,1031.46
2019-01-03T09:05:10.527Z,1031.44
2019-01-03T09:06:10.461Z,1031.47
2019-01-03T09:07:10.710Z,1031.52
2019-01-03T09:08:10.447Z,1031.54
2019-01-03T09:09:10.453Z,1031.56
2019-01-03T09:10:10.749Z,1031.55
2019-01-03T09:11:11.208Z,1031.58
2019-01-03T09:12:10.488Z,1031.56
2019-01-03T09:13:10.382Z,1031.55
2019-01-03T09:14:10.697Z,1031.57
2019-01-03T09:15:10.431Z,1031.51
2019-01-03T09:16:10.369Z,1031.51
2019-01-03T09:17:10.709Z,1031.52
2019-01-03T09:18:10.461Z,1031.55
2019-01-03T09:19:10.379Z,1031.53
2019-01-03T09:20:10.314Z,1031.52
2019-01-03T09:21:10.303Z,1031.54
2019-01-03T09:22:10.300Z,1031.48
2019-01-03T09:23:10.312Z,1031.50
2019-01-03T09:24:10.294Z,1031.46
2019-01-03T09:25:10.553Z,1031.53
2019-01-03T09:26:10.237Z,1031.50
2019-01-03T09:27:12.508Z,1031.53
2019-01-03T09:28:10.529Z,1031.57
2019-01-03T09:29:10.323Z,1031.56
2019-01-03T09:30:10.292Z,1031.53
2019-01-03T09:31:10.448Z,1031.51
2019-01-03T09:32:10.178Z,1031.50
2019-01-03T09:33:10.224Z,1031.45
2019-01-03T09:34:10.158Z,1031.52
2019-01-03T09:35:10.491Z,1031.54
2019-01-03T09:36:10.128Z,1031.56
2019-01-03T09:37:10.142Z,1031.55
2019-01-03T09:38:10.104Z,1031.63
2019-01-03T09:39:10.117Z,1031.59
2019-01-03T09:40:10.086Z,1031.64
2019-01-03T09:41:10.127Z,1031.61
2019-01-03T09:42:10.405Z,1031.53
2019-01-03T09:43:10.084Z,1031.50
2019-01-03T09:44:10.312Z,1031.53
2019-01-03T09:45:10.075Z,1031.53
2019-01-03T09:46:10.267Z,1031.50
2019-01-03T09:47:10.006Z,1031.53
2019-01-03T09:48:10.033Z,1031.50
2019-01-03T09:49:10.014Z,1031.51
2019-01-03T09:50:10.064Z,1031.51
2019-01-03T09:51:10.059Z,1031.52
2019-01-03T09:52:10.086Z,1031.51
2019-01-03T09:53:09.947Z,1031.55
2019-01-03T09:54:09.934Z,1031.53
2019-01-03T09:55:14.165Z,1031.51
2019-01-03T09:56:10.003Z,1031.53
2019-01-03T09:57:09.918Z,1031.51
2019-01-03T09:58:09.963Z,1031.50
2019-01-03T09:59:09.880Z,1031.52
2019-01-03T10:00:09.938Z,1031.48
2019-01-03T10:01:09.861Z,1031.53
2019-01-03T10:02:10.202Z,1031.57
2019-01-03T10:03:09.972Z,1031.59
2019-01-03T10:04:09.850Z,1031.63
2019-01-03T10:05:09.870Z,1031.64
2019-01-03T10:06:10.062Z,1031.62
2019-01-03T10:07:10.784Z,1031.58
2019-01-03T10:08:09.834Z,1031.55
2019-01-03T10:09:09.776Z,1031.56
2019-01-03T10:10:09.803Z,1031.51
2019-01-03T10:11:09.754Z,1031.47
2019-01-03T10:12:10.020Z,1031.47
2019-01-03T10:13:09.757Z,1031.43
2019-01-03T10:14:10.074Z,1031.45
2019-01-03T10:15:09.712Z,1031.46
2019-01-03T10:16:09.702Z,1031.46
2019-01-03T10:17:09.693Z,1031.44
2019-01-03T10:18:09.670Z,1031.46
2019-01-03T10:19:11.404Z,1031.46
2019-01-03T10:20:09.656Z,1031.50
2019-01-03T10:21:09.634Z,1031.50
2019-01-03T10:22:09.670Z,1031.52
2019-01-03T10:23:09.606Z,1031.50
2019-01-03T10:24:10.694Z,1031.51
2019-01-03T10:25:09.619Z,1031.52
2019-01-03T10:26:10.602Z,1031.50
2019-01-03T10:27:09.612Z,1031.52
2019-01-03T10:28:09.559Z,1031.46
2019-01-03T10:29:09.792Z,1031.46
2019-01-03T10:30:09.558Z,1031.45
2019-01-03T10:31:09.540Z,1031.45
2019-01-03T10:32:09.509Z,1031.44
2019-01-03T10:33:09.505Z,1031.43
2019-01-03T10:34:09.494Z,1031.43
2019-01-03T10:35:09.546Z,1031.44
2019-01-03T10:36:09.479Z,1031.41
2019-01-03T10:37:09.567Z,1031.38
2019-01-03T10:38:09.489Z,1031.43
2019-01-03T10:39:09.472Z,1031.40
2019-01-03T10:40:12.438Z,1031.42
2019-01-03T10:41:09.682Z,1031.38
2019-01-03T10:42:09.447Z,1031.38
2019-01-03T10:43:09.392Z,1031.35
2019-01-03T10:44:09.393Z,1031.36
2019-01-03T10:45:09.726Z,1031.34
2019-01-03T10:46:10.125Z,1031.32
2019-01-03T10:47:09.362Z,1031.32
2019-01-03T10:48:09.358Z,1031.33
2019-01-03T10:49:09.407Z,1031.35
2019-01-03T10:50:09.323Z,1031.34
2019-01-03T10:51:09.335Z,1031.37
2019-01-03T10:52:09.292Z,1031.32
2019-01-03T10:53:10.443Z,1031.30
2019-01-03T10:54:10.596Z,1031.26
2019-01-03T10:55:09.324Z,1031.26
2019-01-03T10:56:09.258Z,1031.25
2019-01-03T10:57:09.228Z,1031.23
2019-01-03T10:58:09.230Z,1031.24
2019-01-03T10:59:09.253Z,1031.19
2019-01-03T11:00:09.711Z,1031.18
2019-01-03T11:01:09.241Z,1031.17
2019-01-03T11:02:09.223Z,1031.12
2019-01-03T11:03:09.163Z,1031.09
2019-01-03T11:04:09.218Z,1031.09
2019-01-03T11:05:09.208Z,1031.07
2019-01-03T11:06:10.289Z,1031.10
2019-01-03T11:07:09.136Z,1031.05
2019-01-03T11:08:09.117Z,1031.02
2019-01-03T11:09:09.369Z,1031.07
2019-01-03T11:10:10.099Z,1031.06
2019-01-03T11:11:10.825Z,1031.01
2019-01-03T11:12:09.608Z,1031.04
2019-01-03T11:13:09.082Z,1031.03
2019-01-03T11:14:09.131Z,1030.98
2019-01-03T11:15:09.031Z,1031.00
2019-01-03T11:16:09.035Z,1030.99
2019-01-03T11:17:09.101Z,1030.99
2019-01-03T11:18:09.293Z,1030.97
2019-01-03T11:19:09.004Z,1030.93
2019-01-03T11:20:08.990Z,1030.94
2019-01-03T11:21:09.033Z,1030.95
2019-01-03T11:22:09.006Z,1030.96
2019-01-03T11:23:08.936Z,1030.97
2019-01-03T11:24:08.954Z,1030.97
2019-01-03T11:25:09.476Z,1030.95
2019-01-03T11:26:09.215Z,1030.99
2019-01-03T11:27:09.207Z,1030.95
2019-01-03T11:28:08.945Z,1030.97
2019-01-03T11:29:08.882Z,1030.92
2019-01-03T11:30:09.163Z,1030.89
2019-01-03T11:31:08.905Z,1030.88
2019-01-03T11:32:08.893Z,1030.82
2019-01-03T11:33:12.649Z,1030.81
2019-01-03T11:34:09.139Z,1030.80
2019-01-03T11:35:08.885Z,1030.83
2019-01-03T11:36:09.044Z,1030.77
2019-01-03T11:37:08.804Z,1030.78
2019-01-03T11:38:08.774Z,1030.78
2019-01-03T11:39:08.803Z,1030.77
2019-01-03T11:40:08.807Z,1030.78
2019-01-03T11:41:09.109Z,1030.73
2019-01-03T11:42:08.747Z,1030.76
2019-01-03T11:43:08.756Z,1030.71
2019-01-03T11:44:08.763Z,1030.70
2019-01-03T11:45:08.695Z,1030.70
2019-01-03T11:46:08.747Z,1030.65
2019-01-03T11:47:08.702Z,1030.67
2019-01-03T11:48:09.234Z,1030.63
2019-01-03T11:49:08.669Z,1030.54
2019-01-03T11:50:08.771Z,1030.56
2019-01-03T11:51:08.650Z,1030.55
2019-01-03T11:52:08.882Z,1030.54
2019-01-03T11:53:08.627Z,1030.55
2019-01-03T11:54:08.616Z,1030.53
2019-01-03T11:55:08.623Z,1030.52
2019-01-03T11:56:08.883Z,1030.53
2019-01-03T11:57:08.570Z,1030.52
2019-01-03T11:58:08.838Z,1030.55
2019-01-03T11:59:08.562Z,1030.53
2019-01-03T12:00:08.573Z,1030.53
2019-01-03T12:01:08.533Z,1030.59
2019-01-03T12:02:08.534Z,1030.54
2019-01-03T12:03:08.494Z,1030.58
2019-01-03T12:04:08.558Z,1030.59
2019-01-03T12:05:08.554Z,1030.59